Time;durP1;ratioP1;P1;durP2;ratioP2;P2;SDS_P1;SDS_P2;PMS_P1;PMS_P2;Temp;Humidity;BMP_temperature;BMP_pressure;BME280_temperature;BME280_humidity;BME280_pressure;Samples;Min_cycle;Max_cycle;Signal;HPM_P1;HPM_P2
2023/07/01 00:00:48;;;;;;;13.50;9.70;;;;;;;18.12;75.83;97896.28;435262;1258;99228;-42
2023/07/01 00:11:15;;;;;;;13.50;10.20;;;;;;;18.16;76.49;97897.07;435267;1253;110461;-41
2023/07/01 00:21:22;;;;;;;14.10;10.60;;;;;;;18.27;76.65;97887.67;435351;1253;97995;-43
2023/07/01 00:31:28;;;;;;;11.30;10.00;;;;;;;18.14;76.55;97881.77;435304;1254;111285;-45
2023/07/01 00:41:34;;;;;;;14.60;13.00;;;;;;;18.04;77.12;97882.74;435259;1256;108104;-43
2023/07/01 00:51:42;;;;;;;16.50;12.90;;;;;;;18.05;77.06;97885.34;435269;1255;99254;-44
2023/07/01 01:01:55;;;;;;;15.80;14.20;;;;;;;17.97;77.56;97887.73;435222;1264;108171;-42
2023/07/01 01:12:03;;;;;;;23.00;20.50;;;;;;;18.01;77.68;97880.13;435260;1257;99221;-42
2023/07/01 01:22:12;;;;;;;22.10;18.20;;;;;;;17.99;77.79;97872.52;435953;1253;110962;-43
2023/07/01 01:32:19;;;;;;;17.50;15.50;;;;;;;17.95;78.02;97872.37;435242;1256;107719;-42
2023/07/01 01:42:28;;;;;;;14.70;13.20;;;;;;;17.81;78.10;97868.45;435040;1256;99237;-42
2023/07/01 01:52:37;;;;;;;15.10;13.50;;;;;;;17.86;78.59;97869.11;435041;1256;108220;-41
2023/07/01 02:02:44;;;;;;;13.80;12.40;;;;;;;17.94;78.56;97865.48;435280;1256;99379;-42
2023/07/01 02:12:52;;;;;;;13.40;12.00;;;;;;;17.94;79.01;97862.02;435231;1255;110882;-44
2023/07/01 02:22:59;;;;;;;14.10;12.40;;;;;;;17.95;79.08;97864.44;435192;1250;107811;-43
2023/07/01 02:33:06;;;;;;;13.20;11.90;;;;;;;18.08;79.28;97861.42;435317;1253;99320;-43
2023/07/01 02:43:13;;;;;;;13.30;11.90;;;;;;;18.12;79.19;97849.48;435448;1253;107998;-44
2023/07/01 02:53:20;;;;;;;13.90;12.60;;;;;;;17.94;79.42;97850.98;435496;1253;99171;-44
2023/07/01 03:03:27;;;;;;;13.50;12.20;;;;;;;17.93;79.61;97844.86;435302;1251;110822;-42
2023/07/01 03:13:37;;;;;;;15.00;13.60;;;;;;;18.11;79.90;97846.05;435341;1253;108483;-43
2023/07/01 03:23:44;;;;;;;14.90;13.40;;;;;;;18.15;79.70;97846.27;434810;1251;476414;-44
2023/07/01 03:33:52;;;;;;;13.40;12.10;;;;;;;18.03;79.89;97840.13;435311;1253;108724;-43
2023/07/01 03:43:59;;;;;;;16.80;12.10;;;;;;;18.22;80.16;97842.41;435101;1253;99218;-42
2023/07/01 03:54:06;;;;;;;15.20;13.80;;;;;;;18.25;79.88;97829.32;435364;1253;112011;-43
2023/07/01 04:04:13;;;;;;;16.10;14.60;;;;;;;18.33;80.07;97837.55;435211;1253;108071;-42
2023/07/01 04:14:23;;;;;;;16.30;14.70;;;;;;;18.54;80.08;97827.85;435190;1254;99289;-43
2023/07/01 04:34:37;;;;;;;22.60;18.10;;;;;;;18.69;79.64;97828.04;435276;1253;97947;-43
2023/07/01 04:44:53;;;;;;;20.70;18.00;;;;;;;18.64;79.78;97829.25;435198;1253;112199;-42
2023/07/01 04:55:01;;;;;;;18.40;16.50;;;;;;;18.76;79.86;97833.46;435327;1263;108376;-42
2023/07/01 05:05:10;;;;;;;19.90;17.80;;;;;;;18.85;79.96;97833.45;435259;1253;99525;-43
2023/07/01 05:15:17;;;;;;;17.60;15.10;;;;;;;18.99;79.93;97833.20;435220;1253;107501;-43
2023/07/01 05:25:24;;;;;;;18.20;16.10;;;;;;;19.20;79.68;97831.78;435409;1253;98017;-42
2023/07/01 05:35:32;;;;;;;19.20;16.70;;;;;;;19.40;79.75;97826.97;435438;1253;112139;-42
2023/07/01 05:55:46;;;;;;;22.00;14.90;;;;;;;19.54;79.20;97845.17;435258;1251;99237;-43
2023/07/01 06:05:53;;;;;;;16.20;14.40;;;;;;;19.70;79.37;97849.13;435244;1263;108515;-43
2023/07/01 06:16:00;;;;;;;17.60;15.90;;;;;;;20.01;79.12;97855.80;435246;1252;99311;-42
2023/07/01 06:26:08;;;;;;;19.40;17.50;;;;;;;19.98;78.88;97854.28;435346;1263;112952;-43
2023/07/01 06:36:17;;;;;;;17.50;15.80;;;;;;;20.33;78.74;97850.27;435239;1263;107590;-41
2023/07/01 06:46:24;;;;;;;16.50;14.90;;;;;;;21.05;78.56;97853.42;435297;1253;99246;-45
2023/07/01 06:56:32;;;;;;;21.00;19.00;;;;;;;21.07;78.12;97864.90;435280;1253;107302;-42
2023/07/01 07:06:39;;;;;;;26.90;23.10;;;;;;;20.68;77.49;97870.48;435292;1253;99305;-42
2023/07/01 07:16:46;;;;;;;26.50;19.50;;;;;;;20.32;77.41;97874.67;435269;1253;110170;-42
2023/07/01 07:37:00;;;;;;;26.00;23.00;;;;;;;20.58;77.71;97860.80;435323;1253;99239;-42
2023/07/01 07:47:07;;;;;;;25.90;20.70;;;;;;;21.17;77.61;97846.06;435406;1255;107736;-42
2023/07/01 07:57:14;;;;;;;31.00;24.30;;;;;;;22.29;77.31;97834.56;435461;1252;99234;-43
2023/07/01 08:07:21;;;;;;;28.30;24.10;;;;;;;22.71;75.92;97853.15;435403;1251;111945;-40
2023/07/01 08:17:25;;;;;;;;;;;;;;;22.27;75.33;97855.99;435170;1254;108448;-42
2023/07/01 08:27:33;;;;;;;23.70;19.50;;;;;;;22.37;75.30;97853.09;435242;1251;99236;-42
2023/07/01 08:37:40;;;;;;;28.90;22.10;;;;;;;21.89;74.87;97852.19;435209;1254;108805;-42
2023/07/01 08:47:47;;;;;;;25.80;21.70;;;;;;;21.61;75.04;97848.27;435298;1251;99205;-42
2023/07/01 08:57:54;;;;;;;23.80;19.30;;;;;;;21.96;75.04;97845.27;435121;1253;111868;-40
2023/07/01 09:08:00;;;;;;;18.60;16.60;;;;;;;22.50;74.68;97839.58;435118;1267;107598;-43
2023/07/01 09:18:09;;;;;;;20.90;18.80;;;;;;;23.18;74.61;97821.00;435216;1249;99211;-40
2023/07/01 09:28:30;;;;;;;19.70;17.50;;;;;;;23.67;72.94;97820.41;435289;1251;106821;-40
2023/07/01 09:48:57;;;;;;;22.00;18.60;;;;;;;23.82;71.96;97809.34;435488;1251;112270;-40
2023/07/01 10:19:36;;;;;;;20.70;18.60;;;;;;;24.50;70.20;97798.30;435335;1250;108624;-40
2023/07/01 10:30:00;;;;;;;21.00;18.90;;;;;;;24.32;69.46;97794.06;435452;1249;99207;-41
2023/07/01 10:40:29;;;;;;;20.70;18.70;;;;;;;24.05;69.38;97786.64;435541;1254;111872;-41
2023/07/01 11:01:08;;;;;;;21.40;19.10;;;;;;;24.61;69.09;97770.66;435248;1249;99304;-40
2023/07/01 11:11:19;;;;;;;21.50;19.30;;;;;;;24.81;68.52;97759.34;435251;1254;108722;-41
2023/07/01 11:21:27;;;;;;;19.80;17.90;;;;;;;24.78;67.85;97755.64;435203;1251;97999;-41
2023/07/01 11:31:34;;;;;;;20.30;17.50;;;;;;;24.85;67.32;97752.34;435514;1251;110342;-41
2023/07/01 11:41:43;;;;;;;18.30;16.50;;;;;;;24.98;66.89;97746.86;435206;1253;107011;-41
2023/07/01 11:51:52;;;;;;;19.20;17.20;;;;;;;24.80;66.10;97734.69;435458;1251;98576;-40
2023/07/01 12:01:57;;;;;;;18.00;16.30;;;;;;;24.72;66.09;97726.66;435427;1251;108587;-42
2023/07/01 12:12:04;;;;;;;18.50;16.70;;;;;;;24.82;65.69;97715.98;435427;1253;99215;-40
2023/07/01 12:22:12;;;;;;;18.30;16.30;;;;;;;25.10;65.59;97713.88;435264;1253;111478;-42
2023/07/01 12:32:18;;;;;;;21.10;16.10;;;;;;;25.39;65.03;97709.20;435534;1253;107578;-41
2023/07/01 12:42:27;;;;;;;18.60;16.70;;;;;;;25.34;64.61;97697.32;435462;1250;99416;-41
2023/07/01 12:52:34;;;;;;;19.20;17.10;;;;;;;25.80;63.74;97696.29;435546;1253;107914;-42
2023/07/01 13:02:43;;;;;;;22.50;17.30;;;;;;;25.68;63.03;97688.88;435492;1250;99230;-41
2023/07/01 13:12:50;;;;;;;18.40;16.50;;;;;;;25.49;63.46;97691.67;435379;1251;110848;-42
2023/07/01 13:22:57;;;;;;;;;;;;;;;25.41;63.03;97689.77;435326;1254;108833;-41
2023/07/01 13:33:03;;;;;;;20.80;17.50;;;;;;;25.71;62.58;97684.86;435399;1253;99333;-42
2023/07/01 13:43:08;;;;;;;;;;;;;;;25.59;62.00;97677.00;435411;1250;108798;-41
2023/07/01 13:53:16;;;;;;;21.60;19.30;;;;;;;25.50;61.55;97669.20;435497;1253;98803;-41
2023/07/01 14:03:37;;;;;;;21.00;18.90;;;;;;;25.64;61.72;97655.14;435366;1253;111387;-41
2023/07/01 14:13:44;;;;;;;22.30;20.00;;;;;;;25.71;61.63;97640.00;435225;1253;107726;-41
2023/07/01 14:23:55;;;;;;;22.10;19.90;;;;;;;25.81;61.36;97630.25;435249;1250;99233;-41
2023/07/01 14:44:11;;;;;;;24.10;20.60;;;;;;;25.27;61.06;97617.67;435444;1251;99310;-41
2023/07/01 14:54:18;;;;;;;24.20;21.50;;;;;;;24.79;61.19;97612.92;435415;1253;113788;-41
2023/07/01 15:04:25;;;;;;;25.10;22.50;;;;;;;24.40;61.76;97603.39;435374;1251;108692;-41
2023/07/01 15:14:32;;;;;;;25.70;20.20;;;;;;;24.08;62.78;97598.21;435430;1251;99236;-41
2023/07/01 15:24:39;;;;;;;24.80;22.10;;;;;;;24.03;63.49;97595.16;434996;1253;563455;-41
2023/07/01 15:34:46;;;;;;;25.40;21.10;;;;;;;24.57;63.26;97580.73;435354;1253;99873;-41
2023/07/01 15:44:54;;;;;;;23.20;20.20;;;;;;;24.79;62.72;97574.67;435329;1251;113014;-41
2023/07/01 16:05:14;;;;;;;23.50;19.00;;;;;;;24.74;62.09;97572.25;435513;1251;99168;-41
2023/07/01 16:15:23;;;;;;;22.10;19.00;;;;;;;24.75;62.00;97574.42;435352;1251;106315;-41
2023/07/01 16:25:31;;;;;;;20.50;17.60;;;;;;;24.54;61.77;97563.93;435502;1250;98473;-45
2023/07/01 16:36:15;;;;;;;20.40;18.20;;;;;;;24.50;61.72;97563.35;435410;1251;110495;-42
2023/07/01 16:46:23;;;;;;;21.70;16.80;;;;;;;24.47;61.44;97568.23;435257;1250;109430;-42
2023/07/01 16:56:36;;;;;;;20.30;16.10;;;;;;;24.28;61.14;97566.46;435389;1253;99325;-45
2023/07/01 17:26:57;;;;;;;17.70;15.70;;;;;;;23.59;61.22;97570.58;435331;1253;110865;-42
2023/07/01 17:37:02;;;;;;;17.50;15.60;;;;;;;23.41;61.66;97568.23;435459;1250;109163;-43
2023/07/01 17:47:10;;;;;;;16.50;14.60;;;;;;;23.25;61.89;97564.44;435181;1253;99314;-42
2023/07/01 17:57:15;;;;;;;;;;;;;;;23.07;62.09;97562.33;435271;1253;107583;-43
2023/07/01 18:07:22;;;;;;;17.10;14.80;;;;;;;22.86;62.41;97564.02;435443;1253;97951;-43
2023/07/01 18:17:30;;;;;;;17.90;14.00;;;;;;;22.77;62.31;97568.25;435268;1253;111971;-43
2023/07/01 18:37:43;;;;;;;20.60;15.80;;;;;;;22.40;63.51;97569.23;435535;1251;99307;-42
2023/07/01 18:47:51;;;;;;;18.10;16.20;;;;;;;22.00;64.07;97559.65;435392;1253;108471;-43
2023/07/01 18:57:58;;;;;;;22.70;17.80;;;;;;;21.51;64.35;97573.20;435576;1250;99314;-42
2023/07/01 19:08:06;;;;;;;24.60;18.30;;;;;;;21.07;65.29;97581.92;435440;1253;110806;-43
2023/07/01 19:38:28;;;;;;;23.80;17.70;;;;;;;20.26;66.94;97604.98;435363;1253;109213;-43
2023/07/01 19:48:36;;;;;;;23.60;19.90;;;;;;;19.95;67.43;97607.04;435405;1250;99240;-42
2023/07/01 19:58:44;;;;;;;25.60;18.60;;;;;;;19.58;68.00;97609.43;435462;1253;110964;-42
2023/07/01 20:08:51;;;;;;;20.50;17.00;;;;;;;19.35;68.58;97615.30;435289;1253;107605;-43
2023/07/01 20:18:58;;;;;;;21.80;15.40;;;;;;;19.13;69.20;97619.73;435543;1249;99317;-42
2023/07/01 20:29:06;;;;;;;23.60;18.40;;;;;;;18.92;69.59;97618.67;435293;1253;108719;-42
2023/07/01 20:39:11;;;;;;;24.60;17.30;;;;;;;18.55;70.03;97616.59;435417;1253;98808;-41
2023/07/01 20:49:19;;;;;;;24.50;16.80;;;;;;;18.28;70.49;97619.55;435486;1253;111363;-41
2023/07/01 20:59:30;;;;;;;20.80;16.50;;;;;;;18.15;71.05;97618.90;435565;1253;107409;-42
2023/07/01 21:09:35;;;;;;;29.00;18.50;;;;;;;18.07;71.54;97621.11;435259;1251;98360;-41
2023/07/01 21:19:41;;;;;;;27.30;19.40;;;;;;;18.02;71.81;97619.09;435357;1253;108154;-42
2023/07/01 21:29:48;;;;;;;27.10;20.60;;;;;;;17.94;72.22;97618.95;435287;1250;98827;-40
2023/07/01 21:39:55;;;;;;;25.40;19.90;;;;;;;17.86;72.41;97622.06;435372;1253;112137;-42
2023/07/01 21:50:04;;;;;;;29.70;19.90;;;;;;;17.76;72.82;97622.39;435379;1250;108451;-42
2023/07/01 22:00:15;;;;;;;26.40;20.90;;;;;;;17.64;73.34;97621.02;435390;1251;99260;-42
2023/07/01 22:10:22;;;;;;;28.60;19.30;;;;;;;17.50;73.34;97610.34;435356;1250;108078;-41
2023/07/01 22:20:28;;;;;;;26.70;17.90;;;;;;;17.38;73.72;97606.15;435288;1251;99221;-42
2023/07/01 22:30:35;;;;;;;26.50;16.60;;;;;;;17.39;73.91;97605.75;435325;1253;111027;-42
2023/07/01 22:50:48;;;;;;;35.30;26.30;;;;;;;17.09;74.30;97597.38;435238;1253;98846;-43
2023/07/01 23:00:56;;;;;;;34.80;25.30;;;;;;;16.90;74.67;97586.26;435396;1253;107491;-42
2023/07/01 23:11:03;;;;;;;28.40;21.80;;;;;;;16.73;75.15;97572.84;435364;1253;98849;-43
2023/07/01 23:21:10;;;;;;;28.40;22.20;;;;;;;16.63;75.56;97567.94;435282;1253;110836;-45
2023/07/01 23:31:18;;;;;;;28.60;21.20;;;;;;;16.53;76.02;97561.25;435361;1253;106809;-43
2023/07/01 23:41:24;;;;;;;34.40;26.70;;;;;;;16.47;76.36;97550.85;435393;1253;97903;-41
2023/07/01 23:51:31;;;;;;;32.40;25.50;;;;;;;16.43;76.72;97542.40;435251;1251;109295;-42
